Lanark, IL (61046)

12:19 PM CDT on September 26, 2016 (GMT -0500)
East Side Lake Carroll | | Change Station
Active Advisory: Flood Warning, Flood Watch

Elev 860 ft 42.18 °N, 89.85 °W | Updated 15 seconds ago

Clear
Clear
63.3 °F
Feels Like 63.3 °F
N
16.5
Wind Variable Wind from WNW
Gusts 20.1 mph

Today
High -- | Low -- °F
--% Chance of Precip.
Yesterday
High -- | Low -- °F
Precip. -- in
Pressure 30.02 in
Visibility 10.0 miles
Clouds Clear
Dew Point 37 °F
Humidity 37%
Rainfall 0.00 in
Snow Depth Not available.
6:51 AM 6:48 PM
Waning Crescent, 17% visible
METAR KSFY 261655Z AUTO 29013G21KT 10SM CLR 19/03 A3002 RMK AO2 T01850029
Pressure 30.02 in
Visibility 10.0 miles
Clouds Clear
Dew Point 37 °F
Humidity 37%
Rainfall 0.00 in
Snow Depth Not available.
6:51 AM 6:48 PM
Waning Crescent, 17% visible
METAR KSFY 261655Z AUTO 29013G21KT 10SM CLR 19/03 A3002 RMK AO2 T01850029

10-Day Weather Forecast

Almanac

Astronomy

Sep. 26, 2016 Rise Set
Actual Time
Civil Twilight
Nautical Twilight
Astronomical Twilight
Moon
Length of Visible Light
Length of Day
Tomorrow will be .
, % of the Moon is Illuminated

Today's Extremes

State Highs State Lows

Community

WunderPhotos

Upload Photos

1,941,930 photos uploaded!

WunderBlog® & News

Nearby

Air Quality

  Air Quality AQ Index Pollutant
Not available.

Snow Depth

Station Depth Elevation

Earthquake Activity

City Distance Mag. Time & Date
Minimum magnitude displayed is 2.5.

Coastal Water Temperatures

Place Temperature

Stations

Nearby Weather Stations

Station Location Temp. Windchill Dew Point Humidity Wind Precip. Elev Updated Type
                   

Watches & Warnings

Flood Warning
Issued: 11:31 AM CDT Sep. 26, 2016 – National Weather Service

... Flood Warning now in effect until further notice...

The Flood Warning continues for
the Mississippi River at Fulton ld13.
* Until further notice.
* At 10:00 am Monday the stage was 14.5 feet... and rising.
* Flood stage is 16.0 feet.
* No flooding is occurring and minor flooding is forecast.
* Forecast... rise above flood stage Friday morning... and continue
rising to 16.3 feet Saturday morning.
* Impact... at 16.0 feet... water affects a few houses at Thomson.


Lat... Lon 4211 9012 4208 9019 4189 9020 4188 9012
      4193 9008




Flood Watch
Issued: 11:45 AM CDT Sep. 26, 2016 – National Weather Service

The Flood Watch continues for
the Mississippi River at Bellevue ld12
* until further notice.
* At 10:00 am Monday the stage was 15.6 feet... and rising.
* Flood stage is 17.0 feet.
* Minor flooding is possible.
* Forecast... rise to around 16.3 feet early Friday morning.
* This is based on routed water from upstream, consequently there
is limited confidence in the river reaching flood stage. Forecasts
may change so monitor for updated information.


Lat... Lon 4211 9012 4235 9039 4228 9046 4220 9041
      4208 9019


12